createdAt,value
2018-07-28T00:00:49.390Z,7.15
2018-07-28T00:03:18.342Z,8.28
2018-07-28T00:05:47.273Z,7.45
2018-07-28T00:08:16.198Z,8.05
2018-07-28T00:10:45.142Z,7.92
2018-07-28T00:13:14.083Z,7.78
2018-07-28T00:15:42.974Z,7.80
2018-07-28T00:18:11.945Z,8.15
2018-07-28T00:20:40.834Z,7.45
2018-07-28T00:23:11.117Z,7.90
2018-07-28T00:25:47.331Z,7.55
2018-07-28T00:28:18.257Z,7.10
2018-07-28T00:30:49.057Z,8.30
2018-07-28T00:33:19.255Z,8.95
2018-07-28T00:35:49.306Z,8.25
2018-07-28T00:38:18.885Z,8.30
2018-07-28T00:40:48.335Z,8.10
2018-07-28T00:43:18.631Z,7.28
2018-07-28T00:45:47.860Z,7.47
2018-07-28T00:48:18.458Z,9.28
2018-07-28T00:50:47.754Z,8.45
2018-07-28T00:53:17.135Z,7.53
2018-07-28T00:55:46.136Z,7.97
2018-07-28T00:58:15.774Z,8.00
2018-07-28T01:00:46.404Z,8.10
2018-07-28T01:03:15.550Z,7.70
2018-07-28T01:05:44.743Z,8.18
2018-07-28T01:08:14.289Z,7.78
2018-07-28T01:10:43.910Z,8.05
2018-07-28T01:13:13.018Z,7.78
2018-07-28T01:15:42.126Z,7.62
2018-07-28T01:18:11.879Z,7.85
2018-07-28T01:20:41.125Z,7.83
2018-07-28T01:23:10.196Z,8.05
2018-07-28T01:25:40.181Z,7.92
2018-07-28T01:28:10.134Z,8.43
2018-07-28T01:30:39.859Z,8.63
2018-07-28T01:33:09.572Z,8.30
2018-07-28T01:35:40.029Z,7.80
2018-07-28T01:38:10.211Z,7.60
2018-07-28T01:40:41.325Z,7.80
2018-07-28T01:43:15.826Z,7.65
2018-07-28T01:45:45.767Z,8.25
2018-07-28T01:48:15.038Z,8.30
2018-07-28T01:50:44.782Z,7.90
2018-07-28T01:53:15.377Z,7.00
2018-07-28T01:55:45.164Z,8.68
2018-07-28T01:58:14.811Z,7.90
2018-07-28T02:00:45.092Z,8.08
2018-07-28T02:03:15.479Z,8.20
2018-07-28T02:05:47.387Z,8.28
2018-07-28T02:08:16.644Z,7.90
2018-07-28T02:10:45.562Z,8.75
2018-07-28T02:13:14.562Z,7.90
2018-07-28T02:15:43.493Z,8.20
2018-07-28T02:18:12.089Z,8.03
2018-07-28T02:20:40.897Z,7.65
2018-07-28T02:23:10.018Z,8.75
2018-07-28T02:25:39.070Z,8.40
2018-07-28T02:28:08.993Z,8.53
2018-07-28T02:30:38.846Z,8.45
2018-07-28T02:33:08.950Z,7.90
2018-07-28T02:35:42.012Z,8.25
2018-07-28T02:38:11.953Z,7.28
2018-07-28T02:40:42.112Z,7.90
2018-07-28T02:43:11.472Z,9.08
2018-07-28T02:45:41.690Z,8.58
2018-07-28T02:48:14.388Z,8.60
2018-07-28T02:50:43.643Z,7.97
2018-07-28T02:53:13.948Z,8.63
2018-07-28T02:55:44.387Z,8.05
2018-07-28T02:58:13.511Z,8.48
2018-07-28T03:00:45.398Z,9.05
2018-07-28T03:03:14.852Z,7.30
2018-07-28T03:05:43.925Z,7.87
2018-07-28T03:08:14.770Z,7.85
2018-07-28T03:10:44.082Z,7.72
2018-07-28T03:13:13.501Z,7.60
2018-07-28T03:15:43.258Z,8.68
2018-07-28T03:18:12.625Z,8.50
2018-07-28T03:20:42.484Z,8.70
2018-07-28T03:23:11.800Z,8.63
2018-07-28T03:25:42.473Z,7.42
2018-07-28T03:28:12.778Z,8.05
2018-07-28T03:30:42.063Z,8.18
2018-07-28T03:33:11.608Z,8.30
2018-07-28T03:35:44.855Z,7.87
2018-07-28T03:38:15.262Z,8.43
2018-07-28T03:40:46.588Z,9.10
2018-07-28T03:43:21.063Z,8.08
2018-07-28T03:45:56.437Z,7.10
2018-07-28T03:48:26.959Z,8.53
2018-07-28T03:50:56.244Z,8.50
2018-07-28T03:53:26.518Z,8.20
2018-07-28T03:55:59.763Z,7.53
2018-07-28T03:58:29.180Z,7.58
2018-07-28T04:01:02.901Z,8.38
2018-07-28T04:03:32.575Z,8.48
2018-07-28T04:06:04.111Z,8.00
2018-07-28T04:08:36.573Z,8.20
2018-07-28T04:11:06.393Z,7.58
2018-07-28T04:13:36.987Z,8.65
2018-07-28T04:16:06.257Z,8.50
2018-07-28T04:18:37.835Z,8.35
2018-07-28T04:21:07.638Z,8.45
2018-07-28T04:23:40.152Z,8.03
2018-07-28T04:26:09.478Z,8.63
2018-07-28T04:28:40.435Z,7.90
2018-07-28T04:31:09.998Z,8.68
2018-07-28T04:33:40.819Z,7.83
2018-07-28T04:36:12.208Z,8.55
2018-07-28T04:38:42.127Z,7.70
2018-07-28T04:41:11.617Z,7.80
2018-07-28T04:43:42.979Z,7.45
2018-07-28T04:46:12.424Z,8.23
2018-07-28T04:48:42.504Z,7.47
2018-07-28T04:51:13.263Z,8.20
2018-07-28T04:53:45.787Z,9.53
2018-07-28T04:56:16.165Z,7.85
2018-07-28T04:58:45.735Z,7.20
2018-07-28T05:01:16.350Z,8.00
2018-07-28T05:03:45.929Z,7.85
2018-07-28T05:06:17.166Z,7.92
2018-07-28T05:08:47.311Z,8.73
2018-07-28T05:11:16.815Z,8.65
2018-07-28T05:13:48.470Z,7.58
2018-07-28T05:16:18.785Z,7.80
2018-07-28T05:18:48.819Z,8.33
2018-07-28T05:21:19.585Z,7.72
2018-07-28T05:23:49.746Z,7.50
2018-07-28T05:26:18.844Z,8.40
2018-07-28T05:28:50.630Z,7.35
2018-07-28T05:31:23.622Z,7.25
2018-07-28T05:33:55.246Z,6.92
2018-07-28T05:36:27.896Z,7.00
2018-07-28T05:38:58.312Z,6.92
2018-07-28T05:41:31.384Z,7.05
2018-07-28T05:44:02.562Z,6.65
2018-07-28T05:46:33.968Z,6.85
2018-07-28T05:49:03.058Z,6.83
2018-07-28T05:51:33.304Z,7.10
2018-07-28T05:54:04.346Z,6.80
2018-07-28T05:56:35.568Z,7.23
2018-07-28T05:59:05.095Z,6.47
2018-07-28T06:01:34.674Z,6.30
2018-07-28T06:04:04.763Z,5.92
2018-07-28T06:06:36.837Z,7.20
2018-07-28T06:09:12.852Z,6.57
2018-07-28T06:11:45.489Z,6.20
2018-07-28T06:14:14.923Z,6.57
2018-07-28T06:16:44.067Z,7.23
2018-07-28T06:19:14.348Z,6.10
2018-07-28T06:21:43.972Z,6.73
2018-07-28T06:24:14.321Z,6.03
2018-07-28T06:26:43.804Z,6.40
2018-07-28T06:29:13.290Z,6.70
2018-07-28T06:31:51.121Z,6.90
2018-07-28T06:34:21.125Z,7.20
2018-07-28T06:36:53.659Z,6.80
2018-07-28T06:39:23.491Z,6.92
2018-07-28T06:41:55.975Z,7.40
2018-07-28T06:44:25.343Z,8.80
2018-07-28T06:46:54.650Z,7.90
2018-07-28T06:49:24.608Z,8.93
2018-07-28T06:51:55.137Z,10.23
2018-07-28T06:54:24.394Z,7.27
2018-07-28T06:56:55.439Z,6.80
2018-07-28T06:59:26.041Z,6.00
2018-07-28T07:01:58.861Z,6.70
2018-07-28T07:04:29.050Z,6.40
2018-07-28T07:06:58.990Z,6.00
2018-07-28T07:09:31.004Z,5.93
2018-07-28T07:12:01.831Z,5.87
2018-07-28T07:14:32.655Z,6.20
2018-07-28T07:17:03.009Z,5.53
2018-07-28T07:19:32.399Z,5.60
2018-07-28T07:22:02.671Z,5.90
2018-07-28T07:24:33.926Z,5.83
2018-07-28T07:27:04.655Z,5.40
2018-07-28T07:29:37.460Z,5.77
2018-07-28T07:32:07.772Z,6.77
2018-07-28T07:34:37.253Z,6.17
2018-07-28T07:37:06.414Z,5.90
2018-07-28T07:39:35.753Z,6.10
2018-07-28T07:42:05.041Z,5.80
2018-07-28T07:44:36.679Z,5.70
2018-07-28T07:47:06.735Z,5.77
2018-07-28T07:49:35.984Z,5.83
2018-07-28T07:52:06.859Z,5.63
2018-07-28T07:54:36.424Z,5.53
2018-07-28T07:57:08.241Z,6.40
2018-07-28T07:59:37.732Z,5.60
2018-07-28T08:02:08.049Z,5.70
2018-07-28T08:04:38.433Z,5.43
2018-07-28T08:07:10.315Z,4.83
2018-07-28T08:09:39.511Z,5.80
2018-07-28T08:12:09.179Z,5.87
2018-07-28T08:14:38.983Z,6.30
2018-07-28T08:17:10.782Z,5.73
2018-07-28T08:19:41.659Z,5.50
2018-07-28T08:22:11.548Z,5.47
2018-07-28T08:24:43.721Z,5.60
2018-07-28T08:27:15.958Z,5.60
2018-07-28T08:29:51.479Z,5.13
2018-07-28T08:32:21.200Z,5.10
2018-07-28T08:34:54.194Z,5.00
2018-07-28T08:37:24.109Z,5.27
2018-07-28T08:39:58.886Z,5.50
2018-07-28T08:42:28.346Z,5.57
2018-07-28T08:44:59.497Z,5.60
2018-07-28T08:47:31.753Z,5.03
2018-07-28T08:50:02.976Z,5.13
2018-07-28T08:52:33.357Z,5.60
2018-07-28T08:55:03.044Z,5.13
2018-07-28T08:57:34.318Z,5.40
2018-07-28T09:00:07.051Z,5.27
2018-07-28T09:02:38.116Z,5.97
2018-07-28T09:05:07.765Z,5.00
2018-07-28T09:07:36.412Z,5.00
2018-07-28T09:10:06.493Z,5.73
2018-07-28T09:12:36.226Z,5.27
2018-07-28T09:15:09.127Z,5.03
2018-07-28T09:17:39.338Z,5.00
2018-07-28T09:20:10.694Z,5.60
2018-07-28T09:22:39.893Z,5.30
2018-07-28T09:25:09.896Z,5.50
2018-07-28T09:27:39.763Z,5.23
2018-07-28T09:30:09.925Z,4.73
2018-07-28T09:32:43.241Z,5.10
2018-07-28T09:35:14.457Z,4.90
2018-07-28T09:37:49.918Z,5.37
2018-07-28T09:40:20.557Z,4.80
2018-07-28T09:42:50.627Z,5.40
2018-07-28T09:45:22.781Z,4.50
2018-07-28T09:47:53.266Z,5.30
2018-07-28T09:50:23.446Z,5.30
2018-07-28T09:52:57.469Z,5.47
2018-07-28T09:55:29.818Z,5.53
2018-07-28T09:58:00.690Z,5.20
2018-07-28T10:00:35.586Z,5.30
2018-07-28T10:03:07.998Z,5.60
2018-07-28T10:05:37.232Z,5.10
2018-07-28T10:08:06.330Z,5.47
2018-07-28T10:10:35.766Z,5.80
2018-07-28T10:13:06.061Z,5.57
2018-07-28T10:15:39.050Z,4.67
2018-07-28T10:18:08.701Z,5.40
2018-07-28T10:20:41.184Z,5.50
2018-07-28T10:23:12.188Z,4.63
2018-07-28T10:25:42.037Z,4.20
2018-07-28T10:28:16.534Z,4.23
2018-07-28T10:30:47.044Z,4.13
2018-07-28T10:33:17.065Z,4.83
2018-07-28T10:35:46.411Z,4.43
2018-07-28T10:38:21.517Z,5.77
2018-07-28T10:40:52.291Z,5.47
2018-07-28T10:43:23.428Z,7.03
2018-07-28T10:45:56.861Z,6.67
2018-07-28T10:48:27.312Z,6.13
2018-07-28T10:51:00.238Z,7.53
2018-07-28T10:53:31.091Z,7.13
2018-07-28T10:56:02.249Z,6.00
2018-07-28T10:58:36.169Z,7.13
2018-07-28T11:01:08.702Z,7.70
2018-07-28T11:03:46.490Z,7.53
2018-07-28T11:06:19.867Z,7.87
2018-07-28T11:08:53.388Z,8.00
2018-07-28T11:11:23.997Z,8.37
2018-07-28T11:14:07.397Z,8.17
2018-07-28T11:16:36.866Z,8.60
2018-07-28T11:19:06.207Z,6.60
2018-07-28T11:21:36.776Z,5.90
2018-07-28T11:24:07.115Z,7.10
2018-07-28T11:26:40.049Z,6.77
2018-07-28T11:29:09.372Z,4.27
2018-07-28T11:31:52.805Z,4.70
2018-07-28T11:34:33.390Z,4.40
2018-07-28T11:37:14.851Z,5.07
2018-07-28T11:39:59.340Z,5.10
2018-07-28T11:42:41.209Z,5.40
2018-07-28T11:45:21.387Z,5.20
2018-07-28T11:47:59.353Z,5.40
2018-07-28T11:50:30.042Z,5.17
2018-07-28T11:53:01.274Z,5.47
2018-07-28T11:55:31.288Z,5.50
2018-07-28T11:58:00.917Z,5.77
2018-07-28T12:00:32.400Z,5.50
2018-07-28T12:03:02.121Z,4.60
2018-07-28T12:05:31.336Z,4.53
2018-07-28T12:08:00.083Z,4.40
2018-07-28T12:10:31.424Z,4.60
2018-07-28T12:13:00.971Z,4.30
2018-07-28T12:15:29.962Z,4.40
2018-07-28T12:18:00.825Z,4.60
2018-07-28T12:20:30.605Z,4.90
2018-07-28T12:23:03.955Z,3.87
2018-07-28T12:25:34.109Z,4.30
2018-07-28T12:28:11.112Z,4.37
2018-07-28T12:30:43.511Z,3.53
2018-07-28T12:33:13.005Z,3.83
2018-07-28T12:35:43.631Z,3.80
2018-07-28T12:38:12.808Z,4.07
2018-07-28T12:40:44.324Z,3.60
2018-07-28T12:43:17.284Z,3.90
2018-07-28T12:45:46.895Z,3.90
2018-07-28T12:48:16.390Z,3.80
2018-07-28T12:50:45.897Z,3.40
2018-07-28T12:53:15.440Z,3.97
2018-07-28T12:55:49.199Z,4.03
2018-07-28T12:58:19.378Z,3.70
2018-07-28T13:00:48.769Z,3.57
2018-07-28T13:03:19.709Z,3.80
2018-07-28T13:05:48.947Z,3.63
2018-07-28T13:08:18.042Z,4.40
2018-07-28T13:10:47.527Z,3.50
2018-07-28T13:13:20.288Z,3.10
2018-07-28T13:15:51.074Z,4.73
2018-07-28T13:18:22.180Z,3.67
2018-07-28T13:20:51.373Z,3.60
2018-07-28T13:23:22.652Z,3.30
2018-07-28T13:25:52.039Z,3.90
2018-07-28T13:28:21.490Z,3.33
2018-07-28T13:30:53.036Z,3.10
2018-07-28T13:33:22.895Z,3.00
2018-07-28T13:35:53.178Z,3.30
2018-07-28T13:38:23.463Z,3.47
2018-07-28T13:40:54.081Z,3.20
2018-07-28T13:43:24.440Z,3.27
2018-07-28T13:45:55.277Z,4.13
2018-07-28T13:48:24.948Z,3.60
2018-07-28T13:50:59.356Z,3.00
2018-07-28T13:53:31.948Z,3.87
2018-07-28T13:56:01.975Z,3.53
2018-07-28T13:58:33.012Z,3.80
2018-07-28T14:01:02.447Z,2.90
2018-07-28T14:03:35.993Z,3.33
2018-07-28T14:06:06.598Z,3.13
2018-07-28T14:08:35.781Z,3.47
2018-07-28T14:11:05.145Z,2.83
2018-07-28T14:13:34.628Z,2.80
2018-07-28T14:16:04.007Z,3.37
2018-07-28T14:18:32.992Z,3.23
2018-07-28T14:21:03.022Z,2.90
2018-07-28T14:23:34.165Z,2.83
2018-07-28T14:26:05.961Z,3.03
2018-07-28T14:28:40.422Z,2.90
2018-07-28T14:31:10.017Z,3.07
2018-07-28T14:33:40.360Z,2.80
2018-07-28T14:36:10.430Z,3.20
2018-07-28T14:38:40.462Z,2.70
2018-07-28T14:41:10.437Z,2.63
2018-07-28T14:43:40.887Z,2.90
2018-07-28T14:46:11.082Z,2.60
2018-07-28T14:48:40.915Z,3.13
2018-07-28T14:51:11.438Z,3.00
2018-07-28T14:53:40.670Z,2.90
2018-07-28T14:56:13.339Z,3.03
2018-07-28T14:58:46.591Z,3.23
2018-07-28T15:01:20.678Z,2.73
2018-07-28T15:03:51.721Z,2.93
2018-07-28T15:06:21.179Z,2.80
2018-07-28T15:08:52.792Z,2.57
2018-07-28T15:11:21.924Z,3.40
2018-07-28T15:13:54.927Z,2.97
2018-07-28T15:16:25.541Z,3.00
2018-07-28T15:18:57.773Z,2.70
2018-07-28T15:21:30.857Z,3.03
2018-07-28T15:24:01.808Z,3.00
2018-07-28T15:26:32.554Z,3.43
2018-07-28T15:29:03.852Z,2.93
2018-07-28T15:31:35.790Z,3.37
2018-07-28T15:34:04.980Z,3.17
2018-07-28T15:36:35.919Z,3.37
2018-07-28T15:39:12.499Z,3.20
2018-07-28T15:41:43.384Z,3.30
2018-07-28T15:44:15.411Z,3.10
2018-07-28T15:46:47.701Z,3.30
2018-07-28T15:49:31.165Z,3.40
2018-07-28T15:52:01.412Z,3.27
2018-07-28T15:54:31.847Z,3.27
2018-07-28T15:57:03.119Z,3.43
2018-07-28T15:59:33.725Z,2.90
2018-07-28T16:02:02.618Z,3.07
2018-07-28T16:04:31.972Z,2.90
2018-07-28T16:07:01.287Z,3.00
2018-07-28T16:09:34.704Z,2.97
2018-07-28T16:12:04.920Z,3.13
2018-07-28T16:14:40.422Z,3.77
2018-07-28T16:17:13.565Z,2.83
2018-07-28T16:19:44.927Z,2.97
2018-07-28T16:22:23.606Z,3.23
2018-07-28T16:24:55.399Z,3.20
2018-07-28T16:27:28.411Z,3.27
2018-07-28T16:29:58.462Z,2.77
2018-07-28T16:32:33.319Z,2.90
2018-07-28T16:35:11.655Z,2.70
2018-07-28T16:37:44.996Z,2.90
2018-07-28T16:40:19.621Z,2.90
2018-07-28T16:42:50.168Z,3.40
2018-07-28T16:45:21.343Z,3.03
2018-07-28T16:47:53.744Z,2.73
2018-07-28T16:50:23.742Z,3.30
2018-07-28T16:52:59.636Z,3.67
2018-07-28T16:55:32.268Z,3.33
2018-07-28T16:58:05.483Z,3.10
2018-07-28T17:00:36.251Z,3.80
2018-07-28T17:03:07.145Z,4.00
2018-07-28T17:05:38.062Z,3.67
2018-07-28T17:08:10.648Z,3.63
2018-07-28T17:10:40.769Z,3.77
2018-07-28T17:13:11.976Z,2.93
2018-07-28T17:15:41.815Z,2.90
2018-07-28T17:18:13.814Z,3.47
2018-07-28T17:20:44.589Z,3.20
2018-07-28T17:23:20.843Z,3.30
2018-07-28T17:25:54.681Z,3.37
2018-07-28T17:28:28.019Z,3.17
2018-07-28T17:31:03.429Z,3.20
2018-07-28T17:33:37.929Z,2.73
2018-07-28T17:36:11.056Z,3.43
2018-07-28T17:38:42.080Z,3.10
2018-07-28T17:41:12.876Z,3.23
2018-07-28T17:43:46.453Z,2.83
2018-07-28T17:46:16.325Z,3.03
2018-07-28T17:48:46.530Z,3.40
2018-07-28T17:51:19.923Z,3.63
2018-07-28T17:53:50.608Z,3.13
2018-07-28T17:56:22.264Z,3.63
2018-07-28T17:58:51.778Z,4.07
2018-07-28T18:01:23.894Z,4.13
2018-07-28T18:03:57.019Z,4.00
2018-07-28T18:06:30.272Z,3.97
2018-07-28T18:09:06.055Z,3.70
2018-07-28T18:11:38.176Z,3.93
2018-07-28T18:14:10.157Z,4.20
2018-07-28T18:16:39.547Z,4.77
2018-07-28T18:19:09.521Z,4.20
2018-07-28T18:21:44.662Z,4.90
2018-07-28T18:27:07.342Z,4.27
2018-07-28T18:29:36.912Z,4.47
2018-07-28T18:32:07.779Z,4.27
2018-07-28T18:34:39.538Z,4.00
2018-07-28T18:37:10.110Z,4.20
2018-07-28T18:39:39.959Z,4.17
2018-07-28T18:42:09.502Z,4.10
2018-07-28T18:44:41.587Z,4.50
2018-07-28T18:47:11.850Z,4.27
2018-07-28T18:49:42.542Z,4.33
2018-07-28T18:52:14.178Z,4.97
2018-07-28T18:54:47.980Z,3.80
2018-07-28T18:57:19.024Z,4.40
2018-07-28T18:59:49.726Z,5.00
2018-07-28T19:02:19.577Z,5.30
2018-07-28T19:04:49.168Z,4.53
2018-07-28T19:07:21.557Z,5.13
2018-07-28T19:09:54.492Z,4.30
2018-07-28T19:12:32.099Z,4.90
2018-07-28T19:15:03.895Z,4.43
2018-07-28T19:17:40.754Z,4.57
2018-07-28T19:20:10.099Z,4.30
2018-07-28T19:22:45.286Z,3.83
2018-07-28T19:25:19.871Z,3.90
2018-07-28T19:27:58.529Z,3.60
2018-07-28T19:30:31.099Z,4.30
2018-07-28T19:33:07.168Z,4.47
2018-07-28T19:35:44.874Z,4.80
2018-07-28T19:38:15.325Z,4.53
2018-07-28T19:40:44.910Z,4.30
2018-07-28T19:43:15.048Z,4.30
2018-07-28T19:45:49.671Z,4.60
2018-07-28T19:48:20.250Z,4.50
2018-07-28T19:50:50.796Z,4.57
2018-07-28T19:53:23.653Z,4.80
2018-07-28T19:56:04.437Z,4.60
2018-07-28T19:58:42.601Z,4.43
2018-07-28T20:01:15.985Z,4.80
2018-07-28T20:03:45.310Z,5.20
2018-07-28T20:06:14.571Z,4.50
2018-07-28T20:08:48.695Z,4.43
2018-07-28T20:11:19.323Z,5.27
2018-07-28T20:13:51.289Z,4.80
2018-07-28T20:16:26.674Z,4.80
2018-07-28T20:18:56.781Z,4.73
2018-07-28T20:21:28.081Z,4.83
2018-07-28T20:24:03.564Z,4.50
2018-07-28T20:26:37.169Z,5.20
2018-07-28T20:29:06.958Z,4.60
2018-07-28T20:31:36.896Z,4.93
2018-07-28T20:34:06.517Z,4.73
2018-07-28T20:36:39.288Z,4.47
2018-07-28T20:39:14.902Z,4.40
2018-07-28T20:41:48.077Z,5.67
2018-07-28T20:44:19.220Z,5.30
2018-07-28T20:46:50.051Z,5.03
2018-07-28T20:49:20.596Z,5.63
2018-07-28T20:51:51.415Z,5.83
2018-07-28T20:54:21.090Z,5.00
2018-07-28T20:56:52.251Z,5.20
2018-07-28T20:59:23.335Z,5.20
2018-07-28T21:02:00.306Z,4.80
2018-07-28T21:04:35.695Z,5.43
2018-07-28T21:07:12.747Z,5.40
2018-07-28T21:09:45.042Z,4.87
2018-07-28T21:12:14.310Z,5.23
2018-07-28T21:14:43.962Z,5.63
2018-07-28T21:17:15.242Z,6.30
2018-07-28T21:19:44.903Z,5.97
2018-07-28T21:22:20.085Z,5.13
2018-07-28T21:24:51.340Z,5.10
2018-07-28T21:27:22.133Z,5.33
2018-07-28T21:30:04.977Z,5.67
2018-07-28T21:32:40.385Z,5.23
2018-07-28T21:35:11.018Z,5.30
2018-07-28T21:37:43.539Z,5.37
2018-07-28T21:40:19.410Z,5.70
2018-07-28T21:42:52.230Z,5.50
2018-07-28T21:45:22.328Z,4.83
2018-07-28T21:47:51.717Z,5.90
2018-07-28T21:50:23.667Z,5.27
2018-07-28T21:52:55.281Z,6.60
2018-07-28T21:55:24.807Z,5.17
2018-07-28T21:57:55.894Z,5.63
2018-07-28T22:00:25.631Z,5.77
2018-07-28T22:02:55.181Z,5.13
2018-07-28T22:05:26.362Z,5.43
2018-07-28T22:07:58.567Z,4.87
2018-07-28T22:10:29.940Z,5.47
2018-07-28T22:13:01.062Z,5.37
2018-07-28T22:15:32.013Z,6.57
2018-07-28T22:18:03.488Z,5.30
2018-07-28T22:20:37.026Z,5.20
2018-07-28T22:23:07.102Z,5.90
2018-07-28T22:25:37.617Z,5.17
2018-07-28T22:28:07.332Z,5.43
2018-07-28T22:30:37.459Z,5.33
2018-07-28T22:33:06.960Z,5.57
2018-07-28T22:35:36.213Z,5.30
2018-07-28T22:38:05.891Z,5.67
2018-07-28T22:40:35.342Z,7.20
2018-07-28T22:43:06.683Z,5.57
2018-07-28T22:45:36.840Z,4.87
2018-07-28T22:48:06.404Z,5.47
2018-07-28T22:50:36.134Z,4.80
2018-07-28T22:53:06.809Z,5.23
2018-07-28T22:55:36.214Z,5.33
2018-07-28T22:58:07.107Z,5.40
2018-07-28T23:00:39.818Z,5.30
2018-07-28T23:05:58.170Z,5.37
2018-07-28T23:08:30.491Z,5.47
2018-07-28T23:11:03.640Z,5.30
2018-07-28T23:13:32.990Z,5.37
2018-07-28T23:16:03.211Z,5.17
2018-07-28T23:18:34.092Z,4.90
2018-07-28T23:21:04.072Z,5.03
2018-07-28T23:23:33.961Z,5.10
2018-07-28T23:26:05.128Z,4.40
2018-07-28T23:28:34.404Z,4.80
2018-07-28T23:31:03.831Z,4.00
2018-07-28T23:33:33.523Z,5.00
2018-07-28T23:36:06.185Z,4.80
2018-07-28T23:38:39.534Z,5.17
2018-07-28T23:41:13.282Z,4.70
2018-07-28T23:43:43.299Z,4.83
2018-07-28T23:46:13.404Z,5.07
2018-07-28T23:48:42.784Z,5.47
2018-07-28T23:51:13.400Z,5.43
2018-07-28T23:53:44.131Z,5.23
2018-07-28T23:56:14.456Z,4.53
2018-07-28T23:58:45.134Z,5.10
